createdAt,value
2022-08-28T00:01:01.582Z,22.13
2022-08-28T00:03:30.433Z,22.10
2022-08-28T00:05:57.714Z,22.10
2022-08-28T00:08:24.843Z,22.09
2022-08-28T00:10:52.293Z,22.11
2022-08-28T00:13:21.695Z,22.10
2022-08-28T00:15:52.036Z,22.05
2022-08-28T00:18:19.823Z,22.00
2022-08-28T00:20:47.652Z,21.94
2022-08-28T00:23:14.937Z,21.86
2022-08-28T00:25:42.272Z,21.86
2022-08-28T00:28:23.755Z,21.97
2022-08-28T00:30:54.985Z,22.00
2022-08-28T00:33:30.035Z,21.98
2022-08-28T00:35:58.232Z,21.98
2022-08-28T00:38:27.340Z,21.92
2022-08-28T00:40:58.385Z,21.94
2022-08-28T00:43:36.818Z,21.88
2022-08-28T00:46:09.458Z,21.87
2022-08-28T00:48:37.229Z,21.81
2022-08-28T00:51:24.610Z,21.73
2022-08-28T00:53:58.050Z,21.68
2022-08-28T00:56:26.943Z,21.73
2022-08-28T00:58:56.986Z,21.78
2022-08-28T01:01:24.477Z,21.83
2022-08-28T01:03:51.621Z,21.85
2022-08-28T01:06:20.895Z,21.87
2022-08-28T01:08:50.634Z,21.92
2022-08-28T01:11:19.711Z,22.02
2022-08-28T01:13:48.743Z,22.01
2022-08-28T01:16:18.279Z,22.04
2022-08-28T01:18:47.033Z,21.98
2022-08-28T01:21:36.923Z,21.91
2022-08-28T01:24:15.147Z,21.82
2022-08-28T01:26:43.485Z,21.72
2022-08-28T01:29:12.098Z,21.73
2022-08-28T01:31:40.746Z,21.65
2022-08-28T01:34:10.029Z,21.61
2022-08-28T01:36:37.167Z,21.51
2022-08-28T01:39:17.174Z,21.46
2022-08-28T01:41:47.024Z,21.48
2022-08-28T01:44:18.149Z,21.50
2022-08-28T01:46:46.640Z,21.48
2022-08-28T01:49:14.202Z,21.54
2022-08-28T01:51:42.640Z,21.51
2022-08-28T01:54:10.900Z,21.50
2022-08-28T01:56:39.766Z,21.49
2022-08-28T01:59:08.964Z,21.47
2022-08-28T02:01:37.026Z,21.44
2022-08-28T02:04:04.700Z,21.45
2022-08-28T02:06:32.530Z,21.49
2022-08-28T02:09:00.674Z,21.45
2022-08-28T02:11:30.071Z,21.37
2022-08-28T02:13:57.162Z,21.36
2022-08-28T02:16:25.640Z,21.39
2022-08-28T02:18:53.415Z,21.37
2022-08-28T02:21:20.663Z,21.31
2022-08-28T02:23:48.136Z,21.32
2022-08-28T02:26:15.823Z,21.34
2022-08-28T02:28:43.582Z,21.31
2022-08-28T02:31:11.387Z,21.28
2022-08-28T02:33:43.902Z,21.31
2022-08-28T02:36:13.258Z,21.32
2022-08-28T02:38:40.561Z,21.33
2022-08-28T02:41:08.494Z,21.32
2022-08-28T02:43:35.608Z,21.26
2022-08-28T02:46:03.195Z,21.36
2022-08-28T02:48:32.481Z,21.33
2022-08-28T02:51:02.999Z,21.21
2022-08-28T02:53:30.620Z,21.07
2022-08-28T02:55:58.943Z,20.97
2022-08-28T02:58:27.470Z,20.98
2022-08-28T03:00:55.307Z,21.05
2022-08-28T03:03:22.620Z,21.04
2022-08-28T03:05:50.047Z,20.95
2022-08-28T03:08:17.885Z,20.81
2022-08-28T03:10:45.093Z,20.79
2022-08-28T03:13:23.093Z,20.89
2022-08-28T03:15:55.894Z,20.84
2022-08-28T03:18:25.397Z,20.67
2022-08-28T03:20:53.812Z,20.74
2022-08-28T03:23:26.889Z,20.84
2022-08-28T03:26:10.071Z,20.83
2022-08-28T03:28:42.020Z,20.80
2022-08-28T03:31:13.494Z,20.71
2022-08-28T03:33:42.939Z,20.60
2022-08-28T03:36:12.432Z,20.49
2022-08-28T03:38:39.782Z,20.43
2022-08-28T03:41:11.841Z,20.36
2022-08-28T03:43:39.098Z,20.35
2022-08-28T03:46:06.763Z,20.33
2022-08-28T03:48:36.911Z,20.29
2022-08-28T03:51:19.654Z,20.26
2022-08-28T03:53:53.073Z,20.28
2022-08-28T03:56:23.981Z,20.30
2022-08-28T03:58:53.618Z,20.13
2022-08-28T04:01:21.574Z,20.18
2022-08-28T04:03:49.162Z,20.24
2022-08-28T04:06:17.011Z,20.28
2022-08-28T04:08:44.073Z,20.35
2022-08-28T04:11:11.274Z,20.37
2022-08-28T04:13:38.332Z,20.39
2022-08-28T04:16:11.769Z,20.30
2022-08-28T04:18:41.233Z,20.33
2022-08-28T04:21:14.300Z,20.30
2022-08-28T04:23:43.472Z,20.17
2022-08-28T04:26:13.712Z,20.12
2022-08-28T04:28:41.234Z,20.08
2022-08-28T04:31:08.564Z,20.12
2022-08-28T04:33:36.163Z,20.09
2022-08-28T04:36:09.328Z,20.20
2022-08-28T04:38:41.654Z,20.21
2022-08-28T04:41:14.830Z,20.27
2022-08-28T04:43:43.210Z,20.32
2022-08-28T04:46:13.332Z,20.29
2022-08-28T04:48:41.464Z,20.33
2022-08-28T04:51:10.693Z,20.38
2022-08-28T04:53:38.615Z,20.35
2022-08-28T04:56:08.196Z,20.35
2022-08-28T04:58:35.835Z,20.47
2022-08-28T05:01:09.015Z,20.46
2022-08-28T05:03:36.197Z,20.56
2022-08-28T05:06:04.026Z,20.59
2022-08-28T05:08:32.152Z,20.62
2022-08-28T05:11:32.707Z,20.72
2022-08-28T05:14:04.778Z,20.85
2022-08-28T05:16:33.349Z,20.95
2022-08-28T05:19:02.293Z,21.14
2022-08-28T05:21:29.611Z,21.10
2022-08-28T05:23:58.200Z,21.07
2022-08-28T05:26:27.096Z,21.28
2022-08-28T05:28:57.490Z,21.32
2022-08-28T05:31:25.923Z,21.32
2022-08-28T05:33:54.147Z,21.31
2022-08-28T05:36:23.297Z,21.35
2022-08-28T05:38:56.625Z,21.47
2022-08-28T05:41:26.937Z,21.63
2022-08-28T05:43:54.892Z,21.68
2022-08-28T05:46:23.411Z,21.72
2022-08-28T05:48:50.735Z,21.78
2022-08-28T05:51:22.270Z,21.86
2022-08-28T05:53:50.302Z,21.88
2022-08-28T05:56:24.120Z,21.99
2022-08-28T05:58:51.385Z,22.02
2022-08-28T06:01:24.322Z,22.16
2022-08-28T06:04:00.929Z,22.24
2022-08-28T06:06:30.522Z,22.32
2022-08-28T06:09:04.731Z,22.38
2022-08-28T06:11:32.875Z,22.43
2022-08-28T06:14:02.451Z,22.51
2022-08-28T06:16:31.897Z,22.59
2022-08-28T06:19:00.731Z,22.64
2022-08-28T06:21:29.248Z,22.67
2022-08-28T06:23:56.735Z,22.79
2022-08-28T06:26:24.152Z,22.96
2022-08-28T06:28:52.616Z,23.07
2022-08-28T06:31:24.557Z,23.19
2022-08-28T06:33:54.629Z,23.32
2022-08-28T06:36:22.491Z,23.38
2022-08-28T06:38:49.733Z,23.51
2022-08-28T06:41:16.877Z,23.60
2022-08-28T06:43:44.072Z,23.68
2022-08-28T06:46:11.386Z,23.72
2022-08-28T06:48:38.620Z,23.83
2022-08-28T06:51:07.776Z,23.91
2022-08-28T06:53:35.654Z,24.00
2022-08-28T06:56:08.704Z,24.10
2022-08-28T06:58:37.917Z,24.21
2022-08-28T07:01:29.871Z,24.36
2022-08-28T07:04:00.364Z,24.48
2022-08-28T07:06:30.762Z,24.65
2022-08-28T07:08:58.011Z,24.68
2022-08-28T07:11:31.715Z,24.77
2022-08-28T07:13:59.729Z,24.80
2022-08-28T07:16:30.774Z,24.71
2022-08-28T07:18:58.982Z,24.64
2022-08-28T07:21:27.271Z,24.63
2022-08-28T07:23:55.216Z,24.61
2022-08-28T07:26:26.295Z,24.64
2022-08-28T07:28:57.790Z,24.64
2022-08-28T07:31:43.014Z,24.63
2022-08-28T07:34:12.247Z,24.61
2022-08-28T07:36:40.213Z,24.59
2022-08-28T07:39:07.981Z,24.64
2022-08-28T07:41:39.322Z,24.65
2022-08-28T07:44:25.800Z,24.68
2022-08-28T07:46:58.155Z,24.70
2022-08-28T07:49:26.448Z,24.72
2022-08-28T07:51:54.631Z,24.72
2022-08-28T07:54:22.885Z,24.72
2022-08-28T07:56:50.949Z,24.81
2022-08-28T07:59:19.426Z,24.74
2022-08-28T08:01:48.951Z,24.98
2022-08-28T08:04:17.498Z,25.10
2022-08-28T08:06:45.848Z,25.20
2022-08-28T08:09:16.085Z,25.28
2022-08-28T08:11:43.612Z,25.36
2022-08-28T08:14:11.577Z,25.45
2022-08-28T08:16:42.023Z,25.53
2022-08-28T08:19:10.477Z,25.59
2022-08-28T08:21:38.113Z,25.65
2022-08-28T08:24:05.599Z,25.71
2022-08-28T08:26:33.867Z,25.79
2022-08-28T08:29:01.479Z,25.89
2022-08-28T08:31:35.223Z,25.91
2022-08-28T08:34:05.153Z,25.94
2022-08-28T08:36:35.468Z,25.96
2022-08-28T08:39:06.441Z,25.98
2022-08-28T08:41:50.205Z,25.96
2022-08-28T08:44:33.648Z,25.96
2022-08-28T08:47:09.562Z,26.16
2022-08-28T08:49:42.545Z,26.63
2022-08-28T08:52:12.476Z,27.11
2022-08-28T08:54:45.095Z,27.43
2022-08-28T08:57:15.034Z,27.69
2022-08-28T08:59:42.518Z,27.93
2022-08-28T09:02:18.653Z,28.11
2022-08-28T09:05:01.925Z,28.32
2022-08-28T09:07:38.285Z,28.43
2022-08-28T09:10:11.251Z,28.57
2022-08-28T09:12:55.845Z,28.68
2022-08-28T09:15:42.632Z,28.79
2022-08-28T09:18:21.059Z,28.89
2022-08-28T09:20:58.845Z,28.95
2022-08-28T09:23:30.098Z,29.08
2022-08-28T09:26:01.727Z,29.21
2022-08-28T09:28:41.321Z,29.29
2022-08-28T09:31:14.063Z,29.46
2022-08-28T09:33:49.911Z,29.59
2022-08-28T09:36:34.386Z,29.54
2022-08-28T09:39:18.313Z,29.24
2022-08-28T09:42:07.192Z,29.04
2022-08-28T09:44:46.322Z,29.10
2022-08-28T09:47:36.758Z,29.42
2022-08-28T09:50:36.279Z,29.52
2022-08-28T09:53:09.434Z,29.52
2022-08-28T09:55:55.664Z,29.53
2022-08-28T09:58:28.331Z,29.51
2022-08-28T10:01:10.291Z,29.41
2022-08-28T10:03:52.566Z,29.32
2022-08-28T10:06:29.644Z,29.22
2022-08-28T10:09:05.210Z,29.12
2022-08-28T10:12:07.755Z,29.05
2022-08-28T10:14:49.378Z,28.87
2022-08-28T10:17:54.054Z,28.68
2022-08-28T10:20:43.632Z,28.57
2022-08-28T10:23:17.888Z,28.45
2022-08-28T10:25:51.692Z,28.32
2022-08-28T10:28:47.475Z,28.18
2022-08-28T10:31:31.589Z,28.04
2022-08-28T10:34:13.904Z,28.00
2022-08-28T10:36:42.837Z,27.95
2022-08-28T10:39:51.479Z,27.88
2022-08-28T10:42:43.446Z,27.86
2022-08-28T10:45:19.053Z,27.87
2022-08-28T10:47:53.355Z,27.88
2022-08-28T10:50:28.417Z,27.83
2022-08-28T10:53:10.783Z,27.80
2022-08-28T10:55:44.696Z,27.80
2022-08-28T10:58:23.818Z,27.79
2022-08-28T11:01:01.336Z,27.72
2022-08-28T11:03:35.114Z,27.78
2022-08-28T11:06:11.751Z,27.84
2022-08-28T11:08:40.095Z,27.93
2022-08-28T11:11:14.022Z,27.89
2022-08-28T11:13:44.567Z,27.88
2022-08-28T11:16:23.021Z,27.81
2022-08-28T11:19:27.811Z,27.73
2022-08-28T11:22:16.097Z,27.67
2022-08-28T11:24:49.344Z,27.65
2022-08-28T11:27:29.934Z,27.64
2022-08-28T11:30:01.991Z,27.57
2022-08-28T11:32:34.858Z,27.52
2022-08-28T11:35:12.368Z,27.51
2022-08-28T11:37:45.084Z,27.44
2022-08-28T11:40:55.053Z,27.50
2022-08-28T11:43:22.508Z,27.55
2022-08-28T11:45:55.883Z,27.61
2022-08-28T11:48:23.004Z,27.68
2022-08-28T11:50:58.783Z,27.76
2022-08-28T11:53:38.073Z,27.81
2022-08-28T11:56:33.354Z,27.82
2022-08-28T11:59:12.800Z,27.88
2022-08-28T12:01:40.569Z,27.93
2022-08-28T12:04:15.648Z,27.97
2022-08-28T12:06:48.629Z,28.02
2022-08-28T12:09:45.258Z,28.01
2022-08-28T12:12:19.298Z,27.98
2022-08-28T12:14:46.530Z,27.92
2022-08-28T12:17:17.923Z,27.88
2022-08-28T12:19:55.226Z,27.80
2022-08-28T12:22:44.303Z,27.72
2022-08-28T12:25:32.811Z,27.69
2022-08-28T12:28:18.936Z,27.65
2022-08-28T12:31:02.103Z,27.66
2022-08-28T12:33:50.801Z,27.68
2022-08-28T12:36:26.933Z,27.71
2022-08-28T12:38:56.173Z,27.72
2022-08-28T12:41:27.367Z,27.66
2022-08-28T12:43:58.680Z,27.69
2022-08-28T12:46:28.516Z,27.67
2022-08-28T12:49:02.445Z,27.64
2022-08-28T12:51:33.269Z,27.59
2022-08-28T12:54:05.968Z,27.47
2022-08-28T12:56:37.047Z,27.36
2022-08-28T12:59:27.487Z,27.33
2022-08-28T13:01:55.222Z,27.31
2022-08-28T13:04:36.173Z,27.25
2022-08-28T13:07:16.752Z,27.11
2022-08-28T13:09:49.517Z,27.06
2022-08-28T13:12:55.225Z,27.03
2022-08-28T13:15:50.712Z,26.97
2022-08-28T13:18:39.184Z,26.95
2022-08-28T13:21:24.569Z,26.96
2022-08-28T13:24:22.349Z,26.98
2022-08-28T13:26:59.587Z,27.03
2022-08-28T13:29:27.239Z,27.05
2022-08-28T13:32:00.448Z,27.11
2022-08-28T13:34:29.984Z,27.12
2022-08-28T13:37:05.835Z,27.16
2022-08-28T13:39:42.012Z,27.20
2022-08-28T13:42:16.255Z,27.25
2022-08-28T13:44:54.006Z,27.28
2022-08-28T13:47:21.096Z,27.29
2022-08-28T13:49:49.295Z,27.27
2022-08-28T13:52:16.578Z,27.28
2022-08-28T13:54:45.519Z,27.27
2022-08-28T13:57:14.005Z,27.31
2022-08-28T13:59:41.675Z,27.32
2022-08-28T14:02:31.405Z,27.33
2022-08-28T14:04:58.892Z,27.34
2022-08-28T14:07:26.230Z,27.36
2022-08-28T14:09:56.383Z,27.43
2022-08-28T14:12:33.037Z,27.42
2022-08-28T14:15:02.383Z,27.47
2022-08-28T14:17:29.964Z,27.44
2022-08-28T14:19:57.403Z,27.43
2022-08-28T14:22:24.484Z,27.42
2022-08-28T14:24:51.703Z,27.43
2022-08-28T14:27:18.975Z,27.39
2022-08-28T14:29:46.463Z,27.32
2022-08-28T14:32:13.652Z,27.27
2022-08-28T14:34:41.584Z,27.22
2022-08-28T14:37:08.765Z,27.15
2022-08-28T14:39:36.039Z,27.12
2022-08-28T14:42:06.416Z,27.12
2022-08-28T14:44:40.436Z,27.09
2022-08-28T14:47:07.555Z,27.13
2022-08-28T14:49:34.765Z,27.17
2022-08-28T14:52:02.077Z,27.19
2022-08-28T14:54:29.332Z,27.27
2022-08-28T14:56:56.696Z,27.32
2022-08-28T14:59:27.874Z,27.34
2022-08-28T15:01:58.402Z,27.36
2022-08-28T15:04:27.916Z,27.36
2022-08-28T15:06:59.575Z,27.35
2022-08-28T15:09:27.575Z,27.30
2022-08-28T15:11:55.101Z,27.22
2022-08-28T15:14:22.614Z,27.20
2022-08-28T15:16:50.204Z,27.13
2022-08-28T15:19:18.451Z,27.01
2022-08-28T15:21:49.743Z,26.88
2022-08-28T15:24:19.134Z,26.78
2022-08-28T15:26:47.209Z,26.77
2022-08-28T15:29:14.950Z,26.72
2022-08-28T15:31:45.690Z,26.67
2022-08-28T15:34:16.957Z,26.61
2022-08-28T15:36:54.632Z,26.55
2022-08-28T15:39:47.422Z,26.49
2022-08-28T15:42:14.885Z,26.38
2022-08-28T15:44:43.933Z,26.38
2022-08-28T15:47:12.804Z,26.35
2022-08-28T15:49:48.973Z,26.32
2022-08-28T15:52:18.814Z,26.27
2022-08-28T15:54:46.227Z,26.25
2022-08-28T15:57:13.412Z,26.19
2022-08-28T15:59:49.060Z,26.17
2022-08-28T16:02:23.045Z,26.03
2022-08-28T16:04:50.374Z,26.05
2022-08-28T16:07:19.497Z,26.06
2022-08-28T16:09:46.940Z,26.01
2022-08-28T16:12:14.421Z,25.99
2022-08-28T16:14:41.731Z,25.93
2022-08-28T16:17:11.114Z,25.95
2022-08-28T16:19:41.887Z,25.93
2022-08-28T16:22:10.464Z,25.89
2022-08-28T16:24:38.055Z,25.92
2022-08-28T16:27:06.195Z,25.89
2022-08-28T16:29:35.579Z,25.90
2022-08-28T16:32:04.834Z,25.88
2022-08-28T16:34:33.476Z,25.73
2022-08-28T16:37:01.493Z,25.81
2022-08-28T16:39:29.204Z,25.70
2022-08-28T16:41:56.573Z,25.62
2022-08-28T16:44:28.205Z,25.57
2022-08-28T16:46:56.334Z,25.49
2022-08-28T16:49:24.061Z,25.45
2022-08-28T16:51:51.904Z,25.38
2022-08-28T16:54:19.651Z,25.34
2022-08-28T16:56:47.143Z,25.31
2022-08-28T16:59:23.477Z,25.27
2022-08-28T17:01:53.680Z,25.16
2022-08-28T17:04:21.494Z,25.12
2022-08-28T17:06:48.999Z,25.07
2022-08-28T17:09:16.195Z,25.04
2022-08-28T17:11:43.636Z,24.96
2022-08-28T17:14:12.215Z,24.92
2022-08-28T17:16:39.614Z,24.86
2022-08-28T17:19:06.796Z,24.81
2022-08-28T17:21:52.401Z,24.79
2022-08-28T17:24:20.123Z,24.68
2022-08-28T17:26:47.659Z,24.70
2022-08-28T17:29:15.835Z,24.64
2022-08-28T17:31:43.086Z,24.59
2022-08-28T17:34:10.776Z,24.56
2022-08-28T17:36:40.268Z,24.52
2022-08-28T17:39:10.558Z,24.49
2022-08-28T17:41:39.494Z,24.44
2022-08-28T17:44:07.644Z,24.40
2022-08-28T17:46:37.972Z,24.39
2022-08-28T17:49:07.554Z,24.35
2022-08-28T17:51:43.277Z,24.33
2022-08-28T17:54:18.547Z,24.29
2022-08-28T17:56:46.661Z,24.29
2022-08-28T17:59:15.335Z,24.28
2022-08-28T18:01:45.178Z,24.25
2022-08-28T18:04:13.262Z,24.23
2022-08-28T18:06:40.994Z,24.22
2022-08-28T18:09:10.005Z,24.18
2022-08-28T18:11:37.727Z,24.14
2022-08-28T18:14:05.865Z,24.11
2022-08-28T18:16:34.373Z,24.02
2022-08-28T18:19:02.233Z,24.01
2022-08-28T18:21:29.724Z,24.02
2022-08-28T18:23:57.655Z,24.00
2022-08-28T18:26:24.793Z,23.98
2022-08-28T18:28:52.855Z,23.92
2022-08-28T18:31:20.482Z,23.83
2022-08-28T18:33:47.910Z,23.73
2022-08-28T18:36:16.226Z,23.69
2022-08-28T18:38:44.684Z,23.59
2022-08-28T18:41:12.386Z,23.52
2022-08-28T18:43:39.581Z,23.44
2022-08-28T18:46:09.512Z,23.43
2022-08-28T18:48:38.138Z,23.35
2022-08-28T18:51:12.615Z,23.23
2022-08-28T18:53:42.383Z,23.22
2022-08-28T18:56:12.264Z,23.13
2022-08-28T18:58:40.877Z,23.11
2022-08-28T19:01:09.534Z,23.04
2022-08-28T19:03:37.287Z,22.97
2022-08-28T19:06:06.471Z,22.85
2022-08-28T19:08:35.622Z,22.77
2022-08-28T19:11:07.923Z,22.66
2022-08-28T19:13:35.670Z,22.62
2022-08-28T19:16:03.411Z,22.53
2022-08-28T19:18:31.027Z,22.43
2022-08-28T19:21:05.301Z,22.37
2022-08-28T19:23:32.753Z,22.32
2022-08-28T19:25:59.961Z,22.24
2022-08-28T19:28:27.334Z,22.19
2022-08-28T19:30:55.172Z,22.10
2022-08-28T19:33:22.484Z,22.00
2022-08-28T19:35:50.365Z,21.94
2022-08-28T19:38:18.168Z,21.89
2022-08-28T19:40:45.766Z,21.88
2022-08-28T19:43:16.556Z,21.77
2022-08-28T19:45:45.619Z,21.85
2022-08-28T19:48:13.162Z,21.80
2022-08-28T19:50:41.241Z,21.64
2022-08-28T19:53:10.076Z,21.72
2022-08-28T19:55:37.403Z,21.75
2022-08-28T19:58:06.789Z,21.71
2022-08-28T20:00:35.714Z,21.68
2022-08-28T20:03:03.068Z,21.66
2022-08-28T20:05:30.265Z,21.74
2022-08-28T20:07:57.623Z,21.72
2022-08-28T20:10:26.590Z,21.67
2022-08-28T20:12:54.296Z,21.62
2022-08-28T20:15:21.756Z,21.58
2022-08-28T20:17:49.450Z,21.63
2022-08-28T20:20:25.602Z,21.65
2022-08-28T20:22:55.260Z,21.62
2022-08-28T20:25:23.854Z,21.66
2022-08-28T20:27:50.953Z,21.65
2022-08-28T20:30:18.396Z,21.65
2022-08-28T20:32:45.710Z,21.68
2022-08-28T20:35:13.738Z,21.68
2022-08-28T20:37:45.193Z,21.67
2022-08-28T20:40:18.824Z,21.68
2022-08-28T20:42:46.674Z,21.66
2022-08-28T20:45:15.355Z,21.68
2022-08-28T20:47:43.066Z,21.67
2022-08-28T20:50:10.727Z,21.73
2022-08-28T20:52:38.635Z,21.73
2022-08-28T20:55:10.723Z,21.75
2022-08-28T20:57:37.915Z,21.77
2022-08-28T21:00:08.507Z,21.77
2022-08-28T21:02:36.610Z,21.62
2022-08-28T21:05:04.180Z,21.74
2022-08-28T21:07:33.632Z,21.69
2022-08-28T21:10:05.958Z,21.73
2022-08-28T21:12:39.194Z,21.67
2022-08-28T21:15:08.856Z,21.66
2022-08-28T21:17:36.291Z,21.61
2022-08-28T21:20:10.293Z,21.64
2022-08-28T21:22:38.436Z,21.64
2022-08-28T21:25:08.925Z,21.61
2022-08-28T21:27:36.891Z,21.61
2022-08-28T21:30:06.888Z,21.62
2022-08-28T21:32:34.500Z,21.65
2022-08-28T21:35:04.202Z,21.63
2022-08-28T21:37:31.531Z,21.58
2022-08-28T21:39:59.806Z,21.57
2022-08-28T21:42:28.216Z,21.55
2022-08-28T21:44:55.581Z,21.53
2022-08-28T21:47:24.221Z,21.52
2022-08-28T21:49:56.354Z,21.49
2022-08-28T21:52:28.001Z,21.48
2022-08-28T21:55:04.191Z,21.45
2022-08-28T21:57:32.352Z,21.41
2022-08-28T21:59:59.800Z,21.35
2022-08-28T22:02:27.729Z,21.41
2022-08-28T22:04:54.874Z,21.36
2022-08-28T22:07:22.130Z,21.29
2022-08-28T22:09:49.606Z,21.29
2022-08-28T22:12:16.940Z,21.25
2022-08-28T22:14:44.122Z,21.22
2022-08-28T22:17:12.033Z,21.16
2022-08-28T22:19:40.072Z,21.15
2022-08-28T22:22:26.949Z,21.18
2022-08-28T22:24:54.311Z,21.13
2022-08-28T22:27:21.922Z,21.13
2022-08-28T22:29:49.031Z,21.13
2022-08-28T22:32:16.153Z,21.12
2022-08-28T22:34:46.704Z,21.13
2022-08-28T22:37:14.030Z,21.04
2022-08-28T22:39:42.373Z,21.11
2022-08-28T22:42:10.574Z,21.10
2022-08-28T22:44:38.628Z,21.08
2022-08-28T22:47:06.385Z,21.06
2022-08-28T22:49:33.943Z,21.01
2022-08-28T22:52:03.287Z,21.04
2022-08-28T22:54:32.715Z,21.00
2022-08-28T22:56:59.886Z,20.98
2022-08-28T22:59:28.225Z,20.94
2022-08-28T23:01:55.344Z,20.97
2022-08-28T23:04:22.558Z,20.96
2022-08-28T23:06:50.384Z,20.87
2022-08-28T23:09:17.583Z,20.85
2022-08-28T23:11:44.743Z,20.93
2022-08-28T23:14:12.573Z,20.88
2022-08-28T23:16:39.886Z,20.93
2022-08-28T23:19:09.662Z,20.92
2022-08-28T23:21:43.828Z,20.89
2022-08-28T23:24:13.239Z,20.85
2022-08-28T23:26:40.785Z,20.83
2022-08-28T23:29:08.398Z,20.80
2022-08-28T23:31:36.530Z,20.77
2022-08-28T23:34:06.300Z,20.71
2022-08-28T23:36:35.245Z,20.70
2022-08-28T23:39:03.437Z,20.66
2022-08-28T23:41:31.831Z,20.65
2022-08-28T23:43:58.957Z,20.65
2022-08-28T23:46:26.076Z,20.65
2022-08-28T23:48:53.328Z,20.66
2022-08-28T23:51:22.190Z,20.65
2022-08-28T23:53:50.153Z,20.64
2022-08-28T23:56:18.431Z,20.57
2022-08-28T23:58:45.766Z,20.56
